Terminal Aerodrome Forecast
Issued by NWS

Current Version | Previous Version | Graphics & Text | Print | Product List | Glossary On
Versions: 1 2 3 4 5 6 7 8 9 10 11 12 13 14 15 16 17 18 19 20
639
FTUS41 KILN 181842 AAA
TAFLUK
TAF AMD
KLUK 181842Z 1819/1918 20022G40KT P6SM -SHRA OVC025 WS020/22055KT
     FM182200 22018G34KT 2SM +SHRA BR VCTS OVC015CB WS020/22055KT
      TEMPO 1822/1823 26035G45KT 1SM +TSRA OVC009CB
     FM190000 30020G38KT 4SM -SHRA BR OVC015
     FM190400 31018G32KT P6SM OVC015
     FM190800 30012G20KT P6SM OVC025=

USA.gov is the U.S. government's official web portal to all federal, state and local government web resources and services.